SBPB/PHB METAR and TAF weather

Enter ICAO airport designator
Station Type Date Time Source
SBPB METAR 2019/05/24 21:45 UTC NOAA

SBPB 242145Z 11006KT 9999 SCT017 BKN100 27/24 Q1011


Station Type Date Time Source
SBPB Decoded METAR 2019/05/24 21:45 UTC NOAA

Parnaiba Aeroporto , Brazil (SBPB) 02-55S 041-45W
May 24, 2019 - 05:45 PM EDT / 2019.05.24 2145 UTC
Wind: from the ESE (110 degrees) at 7 MPH (6 KT):0
Visibility: greater than 7 mile(s):0
Sky conditions: mostly cloudy
Temperature: 80 F (27 C)
Dew Point: 75 F (24 C)
Relative Humidity: 83%
Pressure (altimeter): 29.85 in. Hg (1011 hPa)
ob: SBPB 242145Z 11006KT 9999 SCT017 BKN100 27/24 Q1011
cycle: 22

Station Type Date Time Source
SBPB TAF 2019/05/25 12:39 UTC NOAA

TAF SBPB 251000Z 2512/2524 06008KT 9999 SCT020 TX32/2517Z TN27/2521Z
BECMG 2517/2519 09005KT SCT020 FEW025TCU
RMK PFF

Example: see airport list